createdAt,value
2018-08-06T00:00:46.727Z,54.61
2018-08-06T00:03:14.744Z,53.95
2018-08-06T00:05:42.765Z,54.04
2018-08-06T00:08:10.785Z,53.98
2018-08-06T00:10:38.811Z,54.10
2018-08-06T00:13:06.829Z,53.99
2018-08-06T00:15:34.853Z,54.25
2018-08-06T00:18:02.882Z,54.70
2018-08-06T00:20:30.900Z,54.93
2018-08-06T00:22:58.906Z,54.88
2018-08-06T00:25:27.348Z,55.08
2018-08-06T00:27:55.373Z,54.79
2018-08-06T00:30:23.406Z,55.20
2018-08-06T00:32:51.509Z,55.31
2018-08-06T00:35:19.668Z,54.51
2018-08-06T00:37:47.707Z,54.73
2018-08-06T00:40:17.056Z,55.22
2018-08-06T00:42:45.616Z,55.15
2018-08-06T00:45:15.439Z,55.59
2018-08-06T00:47:43.753Z,55.37
2018-08-06T00:50:12.104Z,55.70
2018-08-06T00:52:40.137Z,55.71
2018-08-06T00:55:09.977Z,55.99
2018-08-06T00:57:38.004Z,56.04
2018-08-06T01:00:07.981Z,55.33
2018-08-06T01:02:36.013Z,56.00
2018-08-06T01:05:05.661Z,55.55
2018-08-06T01:07:33.732Z,55.83
2018-08-06T01:10:01.751Z,55.99
2018-08-06T01:12:29.778Z,55.96
2018-08-06T01:14:57.796Z,56.36
2018-08-06T01:17:25.825Z,56.48
2018-08-06T01:19:53.852Z,56.33
2018-08-06T01:22:21.857Z,56.74
2018-08-06T01:24:49.897Z,56.89
2018-08-06T01:27:17.914Z,56.48
2018-08-06T01:29:45.925Z,56.62
2018-08-06T01:32:13.942Z,56.75
2018-08-06T01:34:41.941Z,56.85
2018-08-06T01:37:09.953Z,56.55
2018-08-06T01:39:37.968Z,56.57
2018-08-06T01:42:05.999Z,56.81
2018-08-06T01:44:34.013Z,57.28
2018-08-06T01:47:02.026Z,57.14
2018-08-06T01:49:30.056Z,57.61
2018-08-06T01:51:58.084Z,56.78
2018-08-06T01:54:26.092Z,56.92
2018-08-06T01:56:54.100Z,57.65
2018-08-06T01:59:22.112Z,57.03
2018-08-06T02:01:50.108Z,57.34
2018-08-06T02:04:19.141Z,57.45
2018-08-06T02:06:47.159Z,57.71
2018-08-06T02:09:21.651Z,57.88
2018-08-06T02:11:49.662Z,58.22
2018-08-06T02:14:17.688Z,58.32
2018-08-06T02:16:45.724Z,58.58
2018-08-06T02:19:13.734Z,58.35
2018-08-06T02:21:41.752Z,58.06
2018-08-06T02:24:09.810Z,58.21
2018-08-06T02:26:37.829Z,58.05
2018-08-06T02:29:05.849Z,58.89
2018-08-06T02:31:33.881Z,58.72
2018-08-06T02:34:01.897Z,58.42
2018-08-06T02:36:29.912Z,59.63
2018-08-06T02:38:57.905Z,58.62
2018-08-06T02:41:26.045Z,58.62
2018-08-06T02:43:54.060Z,58.56
2018-08-06T02:46:22.096Z,58.34
2018-08-06T02:48:50.112Z,58.66
2018-08-06T02:51:18.140Z,59.35
2018-08-06T02:53:46.149Z,58.69
2018-08-06T02:56:14.160Z,58.84
2018-08-06T02:58:42.183Z,58.92
2018-08-06T03:01:10.208Z,58.73
2018-08-06T03:03:38.227Z,59.80
2018-08-06T03:06:06.609Z,59.38
2018-08-06T03:08:34.770Z,59.88
2018-08-06T03:11:02.812Z,60.18
2018-08-06T03:13:30.838Z,60.22
2018-08-06T03:15:58.859Z,60.18
2018-08-06T03:18:26.885Z,60.16
2018-08-06T03:20:54.905Z,60.49
2018-08-06T03:23:22.932Z,60.72
2018-08-06T03:25:50.965Z,60.29
2018-08-06T03:28:18.999Z,60.34
2018-08-06T03:30:47.014Z,60.29
2018-08-06T03:33:15.038Z,60.12
2018-08-06T03:35:43.056Z,60.00
2018-08-06T03:38:11.070Z,60.91
2018-08-06T03:40:39.077Z,60.82
2018-08-06T03:43:07.083Z,59.98
2018-08-06T03:45:35.084Z,60.21
2018-08-06T03:48:03.103Z,60.29
2018-08-06T03:50:31.118Z,60.79
2018-08-06T03:52:59.137Z,60.85
2018-08-06T03:55:27.376Z,60.23
2018-08-06T03:57:55.405Z,60.29
2018-08-06T04:00:23.404Z,60.10
2018-08-06T04:02:51.445Z,60.22
2018-08-06T04:05:19.452Z,60.75
2018-08-06T04:07:47.468Z,60.56
2018-08-06T04:10:16.763Z,60.61
2018-08-06T04:12:44.805Z,60.89
2018-08-06T04:15:12.953Z,60.61
2018-08-06T04:17:41.810Z,60.66
2018-08-06T04:20:10.892Z,61.19
2018-08-06T04:22:39.266Z,61.00
2018-08-06T04:25:07.611Z,61.27
2018-08-06T04:27:35.869Z,60.80
2018-08-06T04:30:06.628Z,61.57
2018-08-06T04:32:34.656Z,61.08
2018-08-06T04:35:02.678Z,61.13
2018-08-06T04:37:30.688Z,61.03
2018-08-06T04:39:58.867Z,61.33
2018-08-06T04:42:26.883Z,61.09
2018-08-06T04:44:54.922Z,60.87
2018-08-06T04:47:22.979Z,61.54
2018-08-06T04:49:51.003Z,61.40
2018-08-06T04:52:19.012Z,61.54
2018-08-06T04:54:47.045Z,61.87
2018-08-06T04:57:15.049Z,61.85
2018-08-06T04:59:43.083Z,61.59
2018-08-06T05:02:11.093Z,61.32
2018-08-06T05:04:39.108Z,61.42
2018-08-06T05:07:07.221Z,61.84
2018-08-06T05:09:39.092Z,62.11
2018-08-06T05:12:07.355Z,61.36
2018-08-06T05:14:36.074Z,61.77
2018-08-06T05:17:05.349Z,61.49
2018-08-06T05:19:33.477Z,62.15
2018-08-06T05:22:01.445Z,61.50
2018-08-06T05:24:29.484Z,61.23
2018-08-06T05:26:57.505Z,61.52
2018-08-06T05:29:25.524Z,61.61
2018-08-06T05:31:53.554Z,61.56
2018-08-06T05:34:21.581Z,61.92
2018-08-06T05:36:49.609Z,60.60
2018-08-06T05:39:17.660Z,61.26
2018-08-06T05:41:45.708Z,61.24
2018-08-06T05:44:13.938Z,61.77
2018-08-06T05:46:41.966Z,60.94
2018-08-06T05:49:09.990Z,60.81
2018-08-06T05:51:37.997Z,60.20
2018-08-06T05:54:06.225Z,60.73
2018-08-06T05:56:34.253Z,60.16
2018-08-06T05:59:02.280Z,60.22
2018-08-06T06:01:30.318Z,60.47
2018-08-06T06:03:58.332Z,59.62
2018-08-06T06:06:26.341Z,59.46
2018-08-06T06:08:54.357Z,59.30
2018-08-06T06:11:22.397Z,59.26
2018-08-06T06:13:50.591Z,59.19
2018-08-06T06:16:18.620Z,59.39
2018-08-06T06:18:46.641Z,57.98
2018-08-06T06:21:14.674Z,58.52
2018-08-06T06:23:42.757Z,58.29
2018-08-06T06:26:10.809Z,57.72
2018-08-06T06:28:38.885Z,57.75
2018-08-06T06:31:06.881Z,56.78
2018-08-06T06:33:34.888Z,55.94
2018-08-06T06:36:02.920Z,54.87
2018-08-06T06:38:30.945Z,54.92
2018-08-06T06:40:58.958Z,53.82
2018-08-06T06:43:26.979Z,52.59
2018-08-06T06:45:54.997Z,52.31
2018-08-06T06:48:23.021Z,52.02
2018-08-06T06:50:51.050Z,49.68
2018-08-06T06:53:19.078Z,49.60
2018-08-06T06:55:47.096Z,49.08
2018-08-06T06:58:15.176Z,48.39
2018-08-06T07:00:43.308Z,47.80
2018-08-06T07:03:11.334Z,47.07
2018-08-06T07:05:39.360Z,47.09
2018-08-06T07:08:07.385Z,45.55
2018-08-06T07:10:35.422Z,43.76
2018-08-06T07:13:03.440Z,43.45
2018-08-06T07:15:31.812Z,43.72
2018-08-06T07:17:59.834Z,43.72
2018-08-06T07:20:27.854Z,43.80
2018-08-06T07:22:55.887Z,43.39
2018-08-06T07:25:23.931Z,42.02
2018-08-06T07:27:51.993Z,41.44
2018-08-06T07:30:20.211Z,41.67
2018-08-06T07:32:48.312Z,39.27
2018-08-06T07:35:16.344Z,40.30
2018-08-06T07:37:44.383Z,38.85
2018-08-06T07:40:13.840Z,38.79
2018-08-06T07:42:42.139Z,39.03
2018-08-06T07:45:16.822Z,38.06
2018-08-06T07:47:45.385Z,38.31
2018-08-06T07:50:15.288Z,38.05
2018-08-06T07:52:43.595Z,37.10
2018-08-06T07:55:11.640Z,36.13
2018-08-06T07:57:40.176Z,35.87
2018-08-06T08:00:10.373Z,36.17
2018-08-06T08:02:38.445Z,35.82
2018-08-06T08:05:08.985Z,35.55
2018-08-06T08:07:37.289Z,35.15
2018-08-06T08:10:08.296Z,34.70
2018-08-06T08:12:36.356Z,33.99
2018-08-06T08:15:07.633Z,33.04
2018-08-06T08:17:35.676Z,33.99
2018-08-06T08:20:04.858Z,33.11
2018-08-06T08:22:32.794Z,34.08
2018-08-06T08:25:00.817Z,33.34
2018-08-06T08:27:28.857Z,32.04
2018-08-06T08:29:56.877Z,32.04
2018-08-06T08:32:25.345Z,31.55
2018-08-06T08:34:53.369Z,30.72
2018-08-06T08:37:21.413Z,31.41
2018-08-06T08:39:49.453Z,31.37
2018-08-06T08:42:17.641Z,30.27
2018-08-06T08:44:45.684Z,29.59
2018-08-06T08:47:14.276Z,30.15
2018-08-06T08:49:42.301Z,30.20
2018-08-06T08:52:10.556Z,28.82
2018-08-06T08:54:38.611Z,28.72
2018-08-06T08:57:06.637Z,29.23
2018-08-06T08:59:34.691Z,29.58
2018-08-06T09:02:02.722Z,28.26
2018-08-06T09:04:31.168Z,28.75
2018-08-06T09:06:59.212Z,27.86
2018-08-06T09:09:27.386Z,27.86
2018-08-06T09:11:55.416Z,27.83
2018-08-06T09:14:23.461Z,27.46
2018-08-06T09:16:51.521Z,28.15
2018-08-06T09:19:19.570Z,26.91
2018-08-06T09:21:47.616Z,27.23
2018-08-06T09:24:16.065Z,26.01
2018-08-06T09:26:44.109Z,27.67
2018-08-06T09:29:12.132Z,27.12
2018-08-06T09:31:40.176Z,25.88
2018-08-06T09:34:08.592Z,27.00
2018-08-06T09:36:36.701Z,25.70
2018-08-06T09:39:09.067Z,26.19
2018-08-06T09:41:37.146Z,26.37
2018-08-06T09:44:05.304Z,26.56
2018-08-06T09:46:33.339Z,27.51
2018-08-06T09:49:01.697Z,26.55
2018-08-06T09:51:29.744Z,25.84
2018-08-06T09:53:57.843Z,26.17
2018-08-06T09:56:25.865Z,25.71
2018-08-06T09:58:53.894Z,25.95
2018-08-06T10:01:27.205Z,26.47
2018-08-06T10:03:55.239Z,25.49
2018-08-06T10:06:23.416Z,24.24
2018-08-06T10:08:51.321Z,25.16
2018-08-06T10:11:19.343Z,25.42
2018-08-06T10:13:47.389Z,25.60
2018-08-06T10:16:15.712Z,25.37
2018-08-06T10:18:43.787Z,24.34
2018-08-06T10:21:11.811Z,25.60
2018-08-06T10:23:39.860Z,24.42
2018-08-06T10:26:07.898Z,24.54
2018-08-06T10:28:35.953Z,24.77
2018-08-06T10:31:05.021Z,23.93
2018-08-06T10:33:33.053Z,24.98
2018-08-06T10:36:01.345Z,24.04
2018-08-06T10:38:29.384Z,23.87
2018-08-06T10:40:57.431Z,23.72
2018-08-06T10:43:25.488Z,23.64
2018-08-06T10:45:53.556Z,24.35
2018-08-06T10:48:21.629Z,23.25
2018-08-06T10:50:49.651Z,23.82
2018-08-06T10:53:17.686Z,23.83
2018-08-06T10:55:45.720Z,23.71
2018-08-06T10:58:13.761Z,23.35
2018-08-06T11:00:41.788Z,22.43
2018-08-06T11:03:09.894Z,24.12
2018-08-06T11:05:37.978Z,22.53
2018-08-06T11:08:06.000Z,24.07
2018-08-06T11:10:34.208Z,22.67
2018-08-06T11:13:02.293Z,22.85
2018-08-06T11:15:30.312Z,22.16
2018-08-06T11:17:58.381Z,23.03
2018-08-06T11:20:26.525Z,22.40
2018-08-06T11:22:54.540Z,23.15
2018-08-06T11:25:23.108Z,23.18
2018-08-06T11:27:51.146Z,23.14
2018-08-06T11:30:20.314Z,22.96
2018-08-06T11:32:48.866Z,23.28
2018-08-06T11:35:17.312Z,23.15
2018-08-06T11:37:45.381Z,23.17
2018-08-06T11:40:14.629Z,22.94
2018-08-06T11:42:43.600Z,23.40
2018-08-06T11:45:13.783Z,22.62
2018-08-06T11:47:42.029Z,22.97
2018-08-06T11:50:10.681Z,23.23
2018-08-06T11:52:38.708Z,22.43
2018-08-06T11:55:07.309Z,22.40
2018-08-06T11:57:35.341Z,22.78
2018-08-06T12:00:04.248Z,21.88
2018-08-06T12:02:32.312Z,22.76
2018-08-06T12:05:00.377Z,22.84
2018-08-06T12:07:28.419Z,22.17
2018-08-06T12:09:56.548Z,23.35
2018-08-06T12:12:24.580Z,22.37
2018-08-06T12:14:52.633Z,22.72
2018-08-06T12:17:20.673Z,22.54
2018-08-06T12:19:48.710Z,21.49
2018-08-06T12:22:16.740Z,21.75
2018-08-06T12:24:44.788Z,23.02
2018-08-06T12:27:12.846Z,22.41
2018-08-06T12:29:40.857Z,22.51
2018-08-06T12:32:08.892Z,22.08
2018-08-06T12:34:36.918Z,22.70
2018-08-06T12:37:05.451Z,21.80
2018-08-06T12:39:33.492Z,21.92
2018-08-06T12:42:01.537Z,21.76
2018-08-06T12:44:29.576Z,22.26
2018-08-06T12:46:57.900Z,20.98
2018-08-06T12:49:25.952Z,21.59
2018-08-06T12:51:53.985Z,21.35
2018-08-06T12:54:22.112Z,21.37
2018-08-06T12:56:50.145Z,21.95
2018-08-06T12:59:18.200Z,21.33
2018-08-06T13:01:46.236Z,21.09
2018-08-06T13:04:14.266Z,21.50
2018-08-06T13:06:42.325Z,20.59
2018-08-06T13:09:10.352Z,20.75
2018-08-06T13:11:38.578Z,21.67
2018-08-06T13:14:07.156Z,21.94
2018-08-06T13:16:35.719Z,20.62
2018-08-06T13:19:04.777Z,20.79
2018-08-06T13:21:32.817Z,20.03
2018-08-06T13:24:00.840Z,20.52
2018-08-06T13:26:28.938Z,20.06
2018-08-06T13:28:57.785Z,20.84
2018-08-06T13:31:25.844Z,19.92
2018-08-06T13:33:53.899Z,20.86
2018-08-06T13:36:22.103Z,20.50
2018-08-06T13:38:50.126Z,20.46
2018-08-06T13:41:18.166Z,20.20
2018-08-06T13:43:46.217Z,20.28
2018-08-06T13:46:14.261Z,19.95
2018-08-06T13:48:42.360Z,20.22
2018-08-06T13:51:10.406Z,20.10
2018-08-06T13:53:38.429Z,19.06
2018-08-06T13:56:06.765Z,19.75
2018-08-06T13:58:34.784Z,20.48
2018-08-06T14:01:02.813Z,20.35
2018-08-06T14:03:30.855Z,19.65
2018-08-06T14:05:58.856Z,19.95
2018-08-06T14:08:26.887Z,19.22
2018-08-06T14:10:54.911Z,19.10
2018-08-06T14:13:22.917Z,19.53
2018-08-06T14:15:50.953Z,19.58
2018-08-06T14:18:18.983Z,19.80
2018-08-06T14:20:47.053Z,20.18
2018-08-06T14:23:15.169Z,20.16
2018-08-06T14:25:43.196Z,19.64
2018-08-06T14:28:11.521Z,19.45
2018-08-06T14:30:39.547Z,19.52
2018-08-06T14:33:07.718Z,19.80
2018-08-06T14:35:35.793Z,20.35
2018-08-06T14:38:04.689Z,20.19
2018-08-06T14:40:32.718Z,20.37
2018-08-06T14:43:00.746Z,19.86
2018-08-06T14:45:28.789Z,19.70
2018-08-06T14:47:57.004Z,20.20
2018-08-06T14:50:25.021Z,20.03
2018-08-06T14:52:53.060Z,19.74
2018-08-06T14:55:21.105Z,19.31
2018-08-06T14:57:49.121Z,20.06
2018-08-06T15:00:20.756Z,19.13
2018-08-06T15:02:49.867Z,20.37
2018-08-06T15:05:17.868Z,19.92
2018-08-06T15:07:46.066Z,19.66
2018-08-06T15:10:14.726Z,19.34
2018-08-06T15:12:42.723Z,20.00
2018-08-06T15:15:13.104Z,20.18
2018-08-06T15:17:41.436Z,19.47
2018-08-06T15:20:11.545Z,19.89
2018-08-06T15:22:39.829Z,20.73
2018-08-06T15:25:10.769Z,20.22
2018-08-06T15:27:39.166Z,20.43
2018-08-06T15:30:07.621Z,20.93
2018-08-06T15:32:35.660Z,21.18
2018-08-06T15:35:04.525Z,20.93
2018-08-06T15:37:32.621Z,20.40
2018-08-06T15:40:00.565Z,21.13
2018-08-06T15:42:28.608Z,20.27
2018-08-06T15:44:56.625Z,20.98
2018-08-06T15:47:24.652Z,21.24
2018-08-06T15:49:59.297Z,21.42
2018-08-06T15:52:27.437Z,21.26
2018-08-06T15:54:55.950Z,21.35
2018-08-06T15:57:23.956Z,20.98
2018-08-06T15:59:51.971Z,20.98
2018-08-06T16:02:20.009Z,21.08
2018-08-06T16:04:48.032Z,20.76
2018-08-06T16:07:16.057Z,22.25
2018-08-06T16:09:44.089Z,21.80
2018-08-06T16:12:12.128Z,22.16
2018-08-06T16:14:40.144Z,22.12
2018-08-06T16:17:08.164Z,22.20
2018-08-06T16:19:36.166Z,21.18
2018-08-06T16:22:04.972Z,21.01
2018-08-06T16:24:33.000Z,22.22
2018-08-06T16:27:01.194Z,22.57
2018-08-06T16:29:29.220Z,21.80
2018-08-06T16:31:57.233Z,21.96
2018-08-06T16:34:25.248Z,22.11
2018-08-06T16:36:53.266Z,22.26
2018-08-06T16:39:21.289Z,21.40
2018-08-06T16:41:49.308Z,23.06
2018-08-06T16:44:17.582Z,23.67
2018-08-06T16:46:45.603Z,22.58
2018-08-06T16:49:13.613Z,22.78
2018-08-06T16:51:41.652Z,22.83
2018-08-06T16:54:09.671Z,21.94
2018-08-06T16:56:37.749Z,21.99
2018-08-06T16:59:06.286Z,22.68
2018-08-06T17:01:34.300Z,22.80
2018-08-06T17:04:02.335Z,23.25
2018-08-06T17:06:30.399Z,23.76
2018-08-06T17:08:58.448Z,24.07
2018-08-06T17:11:26.471Z,24.11
2018-08-06T17:13:54.512Z,23.35
2018-08-06T17:16:22.602Z,23.76
2018-08-06T17:18:50.645Z,23.80
2018-08-06T17:21:18.672Z,23.46
2018-08-06T17:23:46.995Z,24.01
2018-08-06T17:26:15.209Z,23.53
2018-08-06T17:28:43.276Z,23.32
2018-08-06T17:31:11.299Z,24.45
2018-08-06T17:33:39.461Z,23.88
2018-08-06T17:36:07.485Z,24.86
2018-08-06T17:38:35.557Z,25.34
2018-08-06T17:41:03.593Z,24.86
2018-08-06T17:43:31.613Z,23.91
2018-08-06T17:45:59.650Z,24.85
2018-08-06T17:48:27.870Z,24.98
2018-08-06T17:50:55.889Z,24.82
2018-08-06T17:53:23.993Z,25.96
2018-08-06T17:55:52.013Z,25.61
2018-08-06T17:58:20.034Z,25.68
2018-08-06T18:00:48.069Z,25.54
2018-08-06T18:03:16.101Z,25.04
2018-08-06T18:05:44.160Z,25.74
2018-08-06T18:08:12.166Z,26.15
2018-08-06T18:10:40.194Z,25.93
2018-08-06T18:13:08.229Z,25.39
2018-08-06T18:15:36.489Z,25.77
2018-08-06T18:18:05.805Z,26.82
2018-08-06T18:20:33.833Z,26.78
2018-08-06T18:23:01.850Z,26.31
2018-08-06T18:25:30.509Z,27.14
2018-08-06T18:27:58.533Z,27.34
2018-08-06T18:30:26.596Z,27.25
2018-08-06T18:32:54.960Z,27.57
2018-08-06T18:35:22.982Z,27.68
2018-08-06T18:37:51.007Z,26.94
2018-08-06T18:40:20.251Z,28.87
2018-08-06T18:42:48.280Z,30.30
2018-08-06T18:45:18.581Z,31.54
2018-08-06T18:47:47.768Z,30.40
2018-08-06T18:50:16.542Z,32.56
2018-08-06T18:52:45.567Z,34.19
2018-08-06T18:55:14.720Z,34.16
2018-08-06T18:57:43.132Z,34.63
2018-08-06T19:00:14.810Z,34.45
2018-08-06T19:02:42.848Z,35.19
2018-08-06T19:05:11.305Z,34.21
2018-08-06T19:07:39.604Z,34.67
2018-08-06T19:10:08.191Z,35.91
2018-08-06T19:12:41.649Z,37.10
2018-08-06T19:15:09.786Z,37.11
2018-08-06T19:17:43.184Z,36.14
2018-08-06T19:20:11.241Z,36.01
2018-08-06T19:22:39.389Z,37.26
2018-08-06T19:25:12.894Z,37.40
2018-08-06T19:27:41.097Z,37.02
2018-08-06T19:30:09.402Z,37.82
2018-08-06T19:32:37.424Z,37.40
2018-08-06T19:35:05.465Z,36.85
2018-08-06T19:37:38.873Z,38.29
2018-08-06T19:40:08.237Z,37.86
2018-08-06T19:42:41.610Z,38.24
2018-08-06T19:45:09.617Z,38.26
2018-08-06T19:47:37.644Z,39.37
2018-08-06T19:50:11.139Z,38.66
2018-08-06T19:52:39.405Z,38.60
2018-08-06T19:55:12.688Z,38.51
2018-08-06T19:57:41.274Z,38.20
2018-08-06T20:00:10.521Z,39.07
2018-08-06T20:02:38.559Z,39.51
2018-08-06T20:05:06.904Z,39.87
2018-08-06T20:07:34.968Z,40.44
2018-08-06T20:10:02.964Z,39.74
2018-08-06T20:12:31.589Z,40.00
2018-08-06T20:14:59.625Z,40.65
2018-08-06T20:17:27.716Z,40.54
2018-08-06T20:19:55.752Z,40.59
2018-08-06T20:22:23.801Z,39.79
2018-08-06T20:24:51.840Z,40.83
2018-08-06T20:27:19.889Z,40.03
2018-08-06T20:29:47.916Z,40.50
2018-08-06T20:32:16.138Z,41.53
2018-08-06T20:34:44.168Z,41.85
2018-08-06T20:37:12.199Z,41.94
2018-08-06T20:39:40.233Z,42.18
2018-08-06T20:42:08.405Z,41.35
2018-08-06T20:44:36.460Z,41.43
2018-08-06T20:47:04.901Z,41.44
2018-08-06T20:49:32.915Z,41.70
2018-08-06T20:52:00.940Z,41.90
2018-08-06T20:54:28.958Z,41.95
2018-08-06T20:56:57.046Z,42.08
2018-08-06T20:59:25.047Z,42.35
2018-08-06T21:01:53.068Z,42.80
2018-08-06T21:04:21.073Z,42.54
2018-08-06T21:06:49.709Z,43.67
2018-08-06T21:09:17.730Z,43.53
2018-08-06T21:11:45.760Z,42.64
2018-08-06T21:14:13.796Z,43.56
2018-08-06T21:16:41.816Z,42.60
2018-08-06T21:19:09.841Z,43.11
2018-08-06T21:21:37.856Z,43.15
2018-08-06T21:24:05.903Z,42.97
2018-08-06T21:26:33.940Z,43.55
2018-08-06T21:29:01.980Z,44.12
2018-08-06T21:31:30.008Z,44.25
2018-08-06T21:33:58.045Z,43.52
2018-08-06T21:36:26.063Z,43.87
2018-08-06T21:38:54.109Z,44.89
2018-08-06T21:41:22.125Z,44.21
2018-08-06T21:43:50.324Z,44.34
2018-08-06T21:46:18.596Z,45.27
2018-08-06T21:48:46.726Z,44.67
2018-08-06T21:51:14.752Z,44.67
2018-08-06T21:53:42.780Z,45.25
2018-08-06T21:56:10.819Z,45.39
2018-08-06T21:58:38.832Z,45.20
2018-08-06T22:01:07.009Z,44.32
2018-08-06T22:03:35.029Z,44.73
2018-08-06T22:06:03.068Z,44.84
2018-08-06T22:08:31.089Z,45.14
2018-08-06T22:10:59.305Z,44.52
2018-08-06T22:13:27.319Z,44.93
2018-08-06T22:15:55.494Z,44.92
2018-08-06T22:18:23.533Z,44.44
2018-08-06T22:20:51.557Z,45.29
2018-08-06T22:23:19.577Z,45.37
2018-08-06T22:25:47.618Z,45.30
2018-08-06T22:28:15.632Z,44.06
2018-08-06T22:30:43.672Z,44.65
2018-08-06T22:33:11.697Z,44.58
2018-08-06T22:35:40.020Z,44.82
2018-08-06T22:38:08.044Z,44.48
2018-08-06T22:40:36.068Z,45.55
2018-08-06T22:43:04.980Z,44.91
2018-08-06T22:45:33.023Z,44.99
2018-08-06T22:48:01.061Z,44.95
2018-08-06T22:50:29.067Z,44.89
2018-08-06T22:52:57.224Z,45.27
2018-08-06T22:55:25.236Z,44.83
2018-08-06T22:57:53.256Z,44.75
2018-08-06T23:00:21.315Z,45.51
2018-08-06T23:02:49.326Z,45.55
2018-08-06T23:05:17.534Z,45.29
2018-08-06T23:07:45.597Z,45.50
2018-08-06T23:10:15.148Z,46.67
2018-08-06T23:12:44.207Z,46.75
2018-08-06T23:15:13.906Z,46.78
2018-08-06T23:17:42.129Z,46.64
2018-08-06T23:20:10.604Z,47.25
2018-08-06T23:22:39.077Z,46.49
2018-08-06T23:25:07.577Z,46.93
2018-08-06T23:27:36.361Z,47.26
2018-08-06T23:30:07.429Z,47.42
2018-08-06T23:32:35.451Z,47.02
2018-08-06T23:35:04.341Z,46.93
2018-08-06T23:37:32.371Z,47.76
2018-08-06T23:40:00.389Z,47.53
2018-08-06T23:42:28.576Z,47.54
2018-08-06T23:44:56.596Z,48.16
2018-08-06T23:47:25.021Z,48.07
2018-08-06T23:49:53.032Z,47.27
2018-08-06T23:52:21.054Z,47.99
2018-08-06T23:54:49.635Z,48.22
2018-08-06T23:57:17.655Z,48.30
2018-08-06T23:59:45.665Z,48.04
